createdAt,value
2016-07-13T00:00:25.273Z,1004.18
2016-07-13T00:01:25.262Z,1004.16
2016-07-13T00:02:25.251Z,1004.18
2016-07-13T00:03:25.239Z,1004.18
2016-07-13T00:04:25.227Z,1004.19
2016-07-13T00:05:25.217Z,1004.21
2016-07-13T00:06:25.207Z,1004.24
2016-07-13T00:07:25.193Z,1004.24
2016-07-13T00:08:25.183Z,1004.23
2016-07-13T00:09:25.170Z,1004.23
2016-07-13T00:10:25.160Z,1004.23
2016-07-13T00:11:25.149Z,1004.21
2016-07-13T00:12:25.139Z,1004.2
2016-07-13T00:13:25.126Z,1004.2
2016-07-13T00:14:25.116Z,1004.21
2016-07-13T00:15:25.103Z,1004.25
2016-07-13T00:16:25.092Z,1004.24
2016-07-13T00:17:25.081Z,1004.26
2016-07-13T00:18:25.067Z,1004.27
2016-07-13T00:19:25.058Z,1004.3
2016-07-13T00:20:25.045Z,1004.28
2016-07-13T00:21:25.035Z,1004.32
2016-07-13T00:22:25.022Z,1004.32
2016-07-13T00:23:25.012Z,1004.31
2016-07-13T00:24:25.000Z,1004.37
2016-07-13T00:25:24.988Z,1004.38
2016-07-13T00:26:25.181Z,1004.39
2016-07-13T00:27:24.967Z,1004.34
2016-07-13T00:28:24.955Z,1004.32
2016-07-13T00:29:24.947Z,1004.33
2016-07-13T00:30:24.932Z,1004.31
2016-07-13T00:31:24.920Z,1004.29
2016-07-13T00:32:24.910Z,1004.28
2016-07-13T00:33:24.897Z,1004.28
2016-07-13T00:34:24.886Z,1004.28
2016-07-13T00:35:24.875Z,1004.25
2016-07-13T00:36:24.864Z,1004.25
2016-07-13T00:37:24.854Z,1004.25
2016-07-13T00:38:24.841Z,1004.23
2016-07-13T00:39:24.829Z,1004.2
2016-07-13T00:40:24.817Z,1004.24
2016-07-13T00:41:24.806Z,1004.23
2016-07-13T00:42:24.797Z,1004.26
2016-07-13T00:43:24.784Z,1004.28
2016-07-13T00:44:24.770Z,1004.26
2016-07-13T00:45:24.759Z,1004.31
2016-07-13T00:46:24.752Z,1004.27
2016-07-13T00:47:24.737Z,1004.26
2016-07-13T00:48:24.725Z,1004.27
2016-07-13T00:49:24.713Z,1004.29
2016-07-13T00:50:24.703Z,1004.29
2016-07-13T00:51:24.692Z,1004.31
2016-07-13T00:52:24.680Z,1004.26
2016-07-13T00:53:24.669Z,1004.32
2016-07-13T00:54:24.655Z,1004.33
2016-07-13T00:55:24.645Z,1004.31
2016-07-13T00:56:24.631Z,1004.29
2016-07-13T00:57:24.620Z,1004.28
2016-07-13T00:58:24.610Z,1004.28
2016-07-13T00:59:24.597Z,1004.28
2016-07-13T01:00:24.587Z,1004.22
2016-07-13T01:01:24.575Z,1004.22
2016-07-13T01:02:24.563Z,1004.2
2016-07-13T01:03:24.552Z,1004.18
2016-07-13T01:04:24.540Z,1004.18
2016-07-13T01:05:24.529Z,1004.13
2016-07-13T01:06:24.515Z,1004.17
2016-07-13T01:07:24.507Z,1004.16
2016-07-13T01:08:24.503Z,1004.17
2016-07-13T01:09:24.484Z,1004.16
2016-07-13T01:10:24.473Z,1004.16
2016-07-13T01:11:24.460Z,1004.16
2016-07-13T01:12:24.449Z,1004.17
2016-07-13T01:13:24.437Z,1004.19
2016-07-13T01:14:24.424Z,1004.21
2016-07-13T01:15:24.414Z,1004.23
2016-07-13T01:16:24.404Z,1004.2
2016-07-13T01:17:24.389Z,1004.21
2016-07-13T01:18:24.379Z,1004.18
2016-07-13T01:19:24.368Z,1004.21
2016-07-13T01:20:24.354Z,1004.23
2016-07-13T01:21:24.343Z,1004.22
2016-07-13T01:22:24.330Z,1004.22
2016-07-13T01:23:24.320Z,1004.23
2016-07-13T01:24:24.307Z,1004.23
2016-07-13T01:25:24.296Z,1004.21
2016-07-13T01:26:24.285Z,1004.2
2016-07-13T01:27:24.271Z,1004.21
2016-07-13T01:28:24.271Z,1004.23
2016-07-13T01:29:24.279Z,1004.22
2016-07-13T01:30:24.253Z,1004.21
2016-07-13T01:31:24.224Z,1004.19
2016-07-13T01:32:24.212Z,1004.21
2016-07-13T01:33:24.201Z,1004.22
2016-07-13T01:34:24.189Z,1004.21
2016-07-13T01:35:24.227Z,1004.22
2016-07-13T01:36:24.167Z,1004.2
2016-07-13T01:37:24.155Z,1004.22
2016-07-13T01:38:24.141Z,1004.21
2016-07-13T01:39:24.130Z,1004.19
2016-07-13T01:40:24.119Z,1004.15
2016-07-13T01:41:24.107Z,1004.15
2016-07-13T01:42:24.094Z,1004.17
2016-07-13T01:43:24.083Z,1004.12
2016-07-13T01:44:24.072Z,1004.17
2016-07-13T01:45:24.059Z,1004.16
2016-07-13T01:46:24.047Z,1004.15
2016-07-13T01:47:24.035Z,1004.16
2016-07-13T01:48:24.023Z,1004.18
2016-07-13T01:49:24.010Z,1004.19
2016-07-13T01:50:24.000Z,1004.21
2016-07-13T01:51:23.988Z,1004.18
2016-07-13T01:52:24.026Z,1004.21
2016-07-13T01:53:23.963Z,1004.19
2016-07-13T01:54:23.953Z,1004.21
2016-07-13T01:55:23.940Z,1004.22
2016-07-13T01:56:23.929Z,1004.22
2016-07-13T01:57:23.918Z,1004.25
2016-07-13T01:58:23.904Z,1004.21
2016-07-13T01:59:23.892Z,1004.26
2016-07-13T02:00:23.880Z,1004.27
2016-07-13T02:01:23.873Z,1004.27
2016-07-13T02:02:23.855Z,1004.24
2016-07-13T02:03:23.845Z,1004.22
2016-07-13T02:04:23.832Z,1004.25
2016-07-13T02:05:23.822Z,1004.2
2016-07-13T02:06:23.809Z,1004.22
2016-07-13T02:07:23.798Z,1004.16
2016-07-13T02:08:23.786Z,1004.18
2016-07-13T02:09:23.773Z,1004.18
2016-07-13T02:10:23.762Z,1004.17
2016-07-13T02:11:23.749Z,1004.2
2016-07-13T02:12:23.738Z,1004.2
2016-07-13T02:13:23.731Z,1004.22
2016-07-13T02:14:23.716Z,1004.19
2016-07-13T02:15:23.702Z,1004.25
2016-07-13T02:16:23.740Z,1004.22
2016-07-13T02:17:23.679Z,1004.25
2016-07-13T02:18:23.667Z,1004.27
2016-07-13T02:19:23.655Z,1004.29
2016-07-13T02:20:23.642Z,1004.3
2016-07-13T02:21:23.630Z,1004.32
2016-07-13T02:22:23.617Z,1004.32
2016-07-13T02:23:23.606Z,1004.3
2016-07-13T02:24:23.594Z,1004.34
2016-07-13T02:25:23.583Z,1004.33
2016-07-13T02:26:23.772Z,1004.38
2016-07-13T02:27:23.559Z,1004.36
2016-07-13T02:28:23.546Z,1004.35
2016-07-13T02:29:23.535Z,1004.32
2016-07-13T02:30:23.523Z,1004.3
2016-07-13T02:31:23.510Z,1004.3
2016-07-13T02:32:23.499Z,1004.32
2016-07-13T02:33:23.487Z,1004.34
2016-07-13T02:34:23.474Z,1004.35
2016-07-13T02:35:23.474Z,1004.35
2016-07-13T02:36:23.451Z,1004.34
2016-07-13T02:37:23.438Z,1004.32
2016-07-13T02:38:23.427Z,1004.29
2016-07-13T02:39:23.417Z,1004.27
2016-07-13T02:40:23.404Z,1004.29
2016-07-13T02:41:23.390Z,1004.3
2016-07-13T02:42:23.378Z,1004.31
2016-07-13T02:43:23.367Z,1004.25
2016-07-13T02:44:23.355Z,1004.25
2016-07-13T02:45:23.343Z,1004.28
2016-07-13T02:46:23.334Z,1004.25
2016-07-13T02:47:23.319Z,1004.26
2016-07-13T02:48:23.307Z,1004.2
2016-07-13T02:49:23.295Z,1004.23
2016-07-13T02:50:23.284Z,1004.21
2016-07-13T02:51:23.272Z,1004.23
2016-07-13T02:52:23.264Z,1004.21
2016-07-13T02:53:23.248Z,1004.18
2016-07-13T02:54:23.235Z,1004.18
2016-07-13T02:55:23.224Z,1004.18
2016-07-13T02:56:23.211Z,1004.21
2016-07-13T02:57:23.205Z,1004.17
2016-07-13T02:58:23.227Z,1004.14
2016-07-13T02:59:23.175Z,1004.22
2016-07-13T03:00:23.214Z,1004.14
2016-07-13T03:01:23.155Z,1004.17
2016-07-13T03:02:23.138Z,1004.17
2016-07-13T03:03:23.129Z,1004.15
2016-07-13T03:04:23.120Z,1004.13
2016-07-13T03:05:23.107Z,1004.15
2016-07-13T03:06:23.092Z,1004.16
2016-07-13T03:07:23.080Z,1004.17
2016-07-13T03:08:23.073Z,1004.12
2016-07-13T03:09:23.057Z,1004.11
2016-07-13T03:10:23.043Z,1004.14
2016-07-13T03:11:23.032Z,1004.13
2016-07-13T03:12:23.021Z,1004.12
2016-07-13T03:13:23.011Z,1004.12
2016-07-13T03:14:22.997Z,1004.08
2016-07-13T03:15:22.983Z,1004.11
2016-07-13T03:16:22.973Z,1004.12
2016-07-13T03:17:22.961Z,1004.13
2016-07-13T03:18:22.948Z,1004.08
2016-07-13T03:19:22.936Z,1004.1
2016-07-13T03:20:22.925Z,1004.18
2016-07-13T03:21:22.912Z,1004.18
2016-07-13T03:22:22.899Z,1004.2
2016-07-13T03:23:22.888Z,1004.2
2016-07-13T03:24:22.876Z,1004.2
2016-07-13T03:25:22.862Z,1004.18
2016-07-13T03:26:22.851Z,1004.2
2016-07-13T03:27:22.841Z,1004.16
2016-07-13T03:28:22.827Z,1004.13
2016-07-13T03:29:22.815Z,1004.14
2016-07-13T03:30:22.803Z,1004.12
2016-07-13T03:31:22.792Z,1004.14
2016-07-13T03:32:22.779Z,1004.12
2016-07-13T03:33:22.767Z,1004.09
2016-07-13T03:34:22.756Z,1004.15
2016-07-13T03:35:22.741Z,1004.12
2016-07-13T03:36:22.732Z,1004.11
2016-07-13T03:37:22.721Z,1004.11
2016-07-13T03:38:22.707Z,1004.09
2016-07-13T03:39:22.698Z,1004.08
2016-07-13T03:40:22.683Z,1004.1
2016-07-13T03:41:22.672Z,1004.1
2016-07-13T03:42:22.659Z,1004.11
2016-07-13T03:43:22.646Z,1004.14
2016-07-13T03:44:22.636Z,1004.1
2016-07-13T03:45:22.623Z,1004.14
2016-07-13T03:46:22.610Z,1004.14
2016-07-13T03:47:22.597Z,1004.16
2016-07-13T03:48:22.585Z,1004.19
2016-07-13T03:49:22.574Z,1004.22
2016-07-13T03:50:22.568Z,1004.19
2016-07-13T03:51:22.551Z,1004.2
2016-07-13T03:52:22.538Z,1004.18
2016-07-13T03:53:22.568Z,1004.2
2016-07-13T03:54:22.514Z,1004.2
2016-07-13T03:55:22.502Z,1004.21
2016-07-13T03:56:22.490Z,1004.24
2016-07-13T03:57:22.476Z,1004.27
2016-07-13T03:58:22.464Z,1004.23
2016-07-13T03:59:22.451Z,1004.21
2016-07-13T04:00:22.441Z,1004.17
2016-07-13T04:01:22.427Z,1004.21
2016-07-13T04:02:22.415Z,1004.22
2016-07-13T04:03:22.403Z,1004.23
2016-07-13T04:04:22.392Z,1004.25
2016-07-13T04:05:22.380Z,1004.26
2016-07-13T04:06:22.367Z,1004.25
2016-07-13T04:07:22.365Z,1004.23
2016-07-13T04:08:22.341Z,1004.22
2016-07-13T04:09:22.331Z,1004.2
2016-07-13T04:10:22.317Z,1004.17
2016-07-13T04:11:22.306Z,1004.18
2016-07-13T04:12:22.299Z,1004.19
2016-07-13T04:13:22.281Z,1004.2
2016-07-13T04:14:22.270Z,1004.17
2016-07-13T04:15:22.257Z,1004.22
2016-07-13T04:16:22.261Z,1004.2
2016-07-13T04:17:22.234Z,1004.21
2016-07-13T04:18:22.224Z,1004.22
2016-07-13T04:19:22.213Z,1004.25
2016-07-13T04:20:22.219Z,1004.24
2016-07-13T04:21:22.184Z,1004.26
2016-07-13T04:22:22.172Z,1004.26
2016-07-13T04:23:22.160Z,1004.27
2016-07-13T04:24:22.149Z,1004.28
2016-07-13T04:25:22.137Z,1004.28
2016-07-13T04:26:22.330Z,1004.25
2016-07-13T04:27:22.114Z,1004.28
2016-07-13T04:28:22.101Z,1004.27
2016-07-13T04:29:22.091Z,1004.26
2016-07-13T04:30:22.077Z,1004.25
2016-07-13T04:31:22.067Z,1004.27
2016-07-13T04:32:22.054Z,1004.22
2016-07-13T04:33:22.043Z,1004.22
2016-07-13T04:34:22.028Z,1004.22
2016-07-13T04:35:22.018Z,1004.24
2016-07-13T04:36:22.006Z,1004.22
2016-07-13T04:37:22.033Z,1004.19
2016-07-13T04:38:21.984Z,1004.25
2016-07-13T04:39:21.972Z,1004.25
2016-07-13T04:40:21.959Z,1004.25
2016-07-13T04:41:21.944Z,1004.24
2016-07-13T04:42:21.936Z,1004.22
2016-07-13T04:43:21.922Z,1004.25
2016-07-13T04:44:21.910Z,1004.22
2016-07-13T04:45:21.898Z,1004.24
2016-07-13T04:46:21.885Z,1004.26
2016-07-13T04:47:21.875Z,1004.23
2016-07-13T04:48:21.863Z,1004.26
2016-07-13T04:49:21.850Z,1004.28
2016-07-13T04:50:21.842Z,1004.24
2016-07-13T04:51:21.828Z,1004.29
2016-07-13T04:52:21.818Z,1004.27
2016-07-13T04:53:21.804Z,1004.28
2016-07-13T04:54:21.794Z,1004.3
2016-07-13T04:55:21.780Z,1004.32
2016-07-13T04:56:21.766Z,1004.32
2016-07-13T04:57:21.758Z,1004.35
2016-07-13T04:58:21.746Z,1004.32
2016-07-13T04:59:21.733Z,1004.31
2016-07-13T05:00:21.721Z,1004.32
2016-07-13T05:01:21.709Z,1004.34
2016-07-13T05:02:21.699Z,1004.4
2016-07-13T05:03:21.685Z,1004.37
2016-07-13T05:04:21.675Z,1004.39
2016-07-13T05:05:21.664Z,1004.37
2016-07-13T05:06:21.655Z,1004.4
2016-07-13T05:07:21.641Z,1004.39
2016-07-13T05:08:21.629Z,1004.41
2016-07-13T05:09:21.616Z,1004.4
2016-07-13T05:10:21.604Z,1004.4
2016-07-13T05:11:21.593Z,1004.42
2016-07-13T05:12:21.584Z,1004.38
2016-07-13T05:13:21.572Z,1004.44
2016-07-13T05:14:21.557Z,1004.42
2016-07-13T05:15:21.546Z,1004.42
2016-07-13T05:16:21.537Z,1004.42
2016-07-13T05:17:21.528Z,1004.42
2016-07-13T05:18:21.510Z,1004.44
2016-07-13T05:19:21.501Z,1004.43
2016-07-13T05:20:21.489Z,1004.42
2016-07-13T05:21:21.477Z,1004.45
2016-07-13T05:22:21.466Z,1004.46
2016-07-13T05:23:21.453Z,1004.44
2016-07-13T05:24:21.441Z,1004.51
2016-07-13T05:25:21.430Z,1004.46
2016-07-13T05:26:21.418Z,1004.5
2016-07-13T05:27:21.408Z,1004.48
2016-07-13T05:28:21.396Z,1004.47
2016-07-13T05:29:21.434Z,1004.46
2016-07-13T05:30:21.374Z,1004.47
2016-07-13T05:31:21.361Z,1004.48
2016-07-13T05:32:21.350Z,1004.44
2016-07-13T05:33:21.338Z,1004.46
2016-07-13T05:34:21.327Z,1004.47
2016-07-13T05:35:21.314Z,1004.48
2016-07-13T05:36:21.304Z,1004.48
2016-07-13T05:37:21.293Z,1004.49
2016-07-13T05:38:21.281Z,1004.47
2016-07-13T05:39:21.268Z,1004.46
2016-07-13T05:40:21.258Z,1004.46
2016-07-13T05:41:21.251Z,1004.47
2016-07-13T05:42:21.235Z,1004.44
2016-07-13T05:43:21.222Z,1004.44
2016-07-13T05:44:21.211Z,1004.48
2016-07-13T05:45:21.199Z,1004.45
2016-07-13T05:46:21.188Z,1004.44
2016-07-13T05:47:21.176Z,1004.45
2016-07-13T05:48:21.165Z,1004.46
2016-07-13T05:49:21.155Z,1004.49
2016-07-13T05:50:21.143Z,1004.5
2016-07-13T05:51:21.132Z,1004.51
2016-07-13T05:52:21.125Z,1004.51
2016-07-13T05:53:21.106Z,1004.5
2016-07-13T05:54:21.097Z,1004.51
2016-07-13T05:55:21.085Z,1004.51
2016-07-13T05:56:21.080Z,1004.53
2016-07-13T05:57:21.062Z,1004.56
2016-07-13T05:58:21.053Z,1004.54
2016-07-13T05:59:21.040Z,1004.53
2016-07-13T06:00:21.030Z,1004.52
2016-07-13T06:01:21.027Z,1004.52
2016-07-13T06:02:21.015Z,1004.53
2016-07-13T06:03:20.996Z,1004.56
2016-07-13T06:04:20.985Z,1004.54
2016-07-13T06:05:20.972Z,1004.55
2016-07-13T06:06:20.960Z,1004.54
2016-07-13T06:07:20.953Z,1004.56
2016-07-13T06:08:20.940Z,1004.59
2016-07-13T06:09:20.930Z,1004.58
2016-07-13T06:10:20.921Z,1004.55
2016-07-13T06:11:20.910Z,1004.56
2016-07-13T06:12:20.896Z,1004.6
2016-07-13T06:13:20.884Z,1004.6
2016-07-13T06:14:20.873Z,1004.59
2016-07-13T06:15:20.861Z,1004.59
2016-07-13T06:16:20.850Z,1004.55
2016-07-13T06:17:20.842Z,1004.55
2016-07-13T06:18:20.829Z,1004.6
2016-07-13T06:19:20.816Z,1004.61
2016-07-13T06:20:20.806Z,1004.6
2016-07-13T06:21:20.800Z,1004.66
2016-07-13T06:22:20.786Z,1004.65
2016-07-13T06:23:20.774Z,1004.65
2016-07-13T06:24:20.765Z,1004.64
2016-07-13T06:25:20.753Z,1004.69
2016-07-13T06:26:20.742Z,1004.67
2016-07-13T06:27:20.733Z,1004.69
2016-07-13T06:28:20.729Z,1004.67
2016-07-13T06:29:20.712Z,1004.67
2016-07-13T06:30:20.701Z,1004.66
2016-07-13T06:31:20.689Z,1004.67
2016-07-13T06:32:20.678Z,1004.72
2016-07-13T06:33:20.673Z,1004.71
2016-07-13T06:34:20.659Z,1004.67
2016-07-13T06:35:20.646Z,1004.68
2016-07-13T06:36:20.642Z,1004.66
2016-07-13T06:37:20.627Z,1004.68
2016-07-13T06:38:20.616Z,1004.68
2016-07-13T06:39:20.604Z,1004.65
2016-07-13T06:40:20.594Z,1004.7
2016-07-13T06:41:20.584Z,1004.69
2016-07-13T06:42:20.573Z,1004.68
2016-07-13T06:43:20.562Z,1004.68
2016-07-13T06:44:20.552Z,1004.7
2016-07-13T06:45:20.542Z,1004.76
2016-07-13T06:46:20.531Z,1004.71
2016-07-13T06:47:20.519Z,1004.76
2016-07-13T06:48:20.510Z,1004.77
2016-07-13T06:49:20.501Z,1004.77
2016-07-13T06:50:20.488Z,1004.75
2016-07-13T06:51:20.478Z,1004.77
2016-07-13T06:52:20.470Z,1004.78
2016-07-13T06:53:20.457Z,1004.77
2016-07-13T06:54:20.448Z,1004.73
2016-07-13T06:55:20.437Z,1004.78
2016-07-13T06:56:20.425Z,1004.78
2016-07-13T06:57:20.415Z,1004.79
2016-07-13T06:58:20.405Z,1004.83
2016-07-13T06:59:20.395Z,1004.81
2016-07-13T07:00:20.384Z,1004.79
2016-07-13T07:01:20.375Z,1004.78
2016-07-13T07:02:20.364Z,1004.82
2016-07-13T07:03:20.353Z,1004.83
2016-07-13T07:04:20.344Z,1004.79
2016-07-13T07:05:20.333Z,1004.78
2016-07-13T07:06:20.322Z,1004.82
2016-07-13T07:07:20.312Z,1004.85
2016-07-13T07:08:20.304Z,1004.8
2016-07-13T07:09:20.291Z,1004.82
2016-07-13T07:10:20.282Z,1004.75
2016-07-13T07:11:20.272Z,1004.78
2016-07-13T07:12:20.261Z,1004.77
2016-07-13T07:13:20.253Z,1004.79
2016-07-13T07:14:20.241Z,1004.77
2016-07-13T07:15:20.231Z,1004.82
2016-07-13T07:16:20.222Z,1004.77
2016-07-13T07:17:20.213Z,1004.82
2016-07-13T07:18:20.202Z,1004.84
2016-07-13T07:19:20.189Z,1004.85
2016-07-13T07:20:20.182Z,1004.83
2016-07-13T07:21:20.171Z,1004.8
2016-07-13T07:22:20.161Z,1004.82
2016-07-13T07:23:20.151Z,1004.81
2016-07-13T07:24:20.143Z,1004.82
2016-07-13T07:25:20.132Z,1004.79
2016-07-13T07:26:20.121Z,1004.8
2016-07-13T07:27:20.112Z,1004.85
2016-07-13T07:28:20.103Z,1004.8
2016-07-13T07:29:20.093Z,1004.85
2016-07-13T07:30:20.082Z,1004.83
2016-07-13T07:31:20.072Z,1004.82
2016-07-13T07:32:20.068Z,1004.8
2016-07-13T07:33:20.055Z,1004.76
2016-07-13T07:34:20.517Z,1004.8
2016-07-13T07:35:20.039Z,1004.8
2016-07-13T07:36:20.028Z,1004.78
2016-07-13T07:37:20.020Z,1004.77
2016-07-13T07:38:20.010Z,1004.8
2016-07-13T07:39:19.999Z,1004.78
2016-07-13T07:40:19.991Z,1004.81
2016-07-13T07:41:19.982Z,1004.76
2016-07-13T07:42:19.974Z,1004.81
2016-07-13T07:43:19.965Z,1004.83
2016-07-13T07:44:19.955Z,1004.8
2016-07-13T07:45:19.949Z,1004.8
2016-07-13T07:46:19.940Z,1004.82
2016-07-13T07:47:19.930Z,1004.83
2016-07-13T07:48:19.921Z,1004.81
2016-07-13T07:49:19.914Z,1004.81
2016-07-13T07:50:19.906Z,1004.78
2016-07-13T07:51:19.899Z,1004.76
2016-07-13T07:52:19.894Z,1004.76
2016-07-13T07:53:19.883Z,1004.88
2016-07-13T07:54:19.886Z,1004.88
2016-07-13T07:55:19.869Z,1004.89
2016-07-13T07:56:19.865Z,1004.94
2016-07-13T07:57:19.858Z,1004.86
2016-07-13T07:58:19.846Z,1004.91
2016-07-13T07:59:19.841Z,1004.93
2016-07-13T08:00:19.835Z,1004.93
2016-07-13T08:01:19.827Z,1004.89
2016-07-13T08:02:19.819Z,1004.88
2016-07-13T08:03:19.814Z,1004.96
2016-07-13T08:04:19.807Z,1004.93
2016-07-13T08:05:19.801Z,1004.98
2016-07-13T08:06:19.795Z,1004.86
2016-07-13T08:07:19.789Z,1004.9
2016-07-13T08:08:19.784Z,1004.85
2016-07-13T08:09:19.778Z,1004.88
2016-07-13T08:10:19.771Z,1004.83
2016-07-13T08:11:19.767Z,1004.83
2016-07-13T08:12:19.761Z,1004.86
2016-07-13T08:13:19.755Z,1004.9
2016-07-13T08:14:19.748Z,1004.86
2016-07-13T08:15:19.742Z,1004.83
2016-07-13T08:16:19.736Z,1004.85
2016-07-13T08:17:19.732Z,1004.85
2016-07-13T08:18:19.728Z,1004.88
2016-07-13T08:19:19.724Z,1004.85
2016-07-13T08:20:19.712Z,1004.87
2016-07-13T08:21:19.704Z,1004.88
2016-07-13T08:22:19.759Z,1004.83
2016-07-13T08:23:19.693Z,1004.78
2016-07-13T08:24:19.684Z,1004.84
2016-07-13T08:25:19.678Z,1004.9
2016-07-13T08:26:19.672Z,1004.88
2016-07-13T08:27:19.665Z,1004.88
2016-07-13T08:28:19.657Z,1004.87
2016-07-13T08:29:19.651Z,1004.92
2016-07-13T08:30:19.646Z,1004.89
2016-07-13T08:31:19.641Z,1004.93
2016-07-13T08:32:19.634Z,1004.89
2016-07-13T08:33:19.630Z,1004.95
2016-07-13T08:34:19.627Z,1004.93
2016-07-13T08:35:19.621Z,1004.97
2016-07-13T08:36:19.615Z,1004.92
2016-07-13T08:37:19.610Z,1004.94
2016-07-13T08:38:19.607Z,1004.9
2016-07-13T08:39:19.600Z,1004.9
2016-07-13T08:40:19.595Z,1004.9
2016-07-13T08:41:19.592Z,1005.03
2016-07-13T08:42:19.586Z,1004.99
2016-07-13T08:43:19.581Z,1005.03
2016-07-13T08:44:19.576Z,1005.08
2016-07-13T08:45:19.573Z,1005.07
2016-07-13T08:46:19.573Z,1005.03
2016-07-13T08:47:19.563Z,1005.08
2016-07-13T08:48:19.558Z,1005.08
2016-07-13T08:49:19.607Z,1005.02
2016-07-13T08:50:19.555Z,1005.05
2016-07-13T08:51:19.548Z,1005.07
2016-07-13T08:52:19.544Z,1005.01
2016-07-13T08:53:19.538Z,1005.04
2016-07-13T08:54:19.535Z,1005.07
2016-07-13T08:55:19.530Z,1005.05
2016-07-13T08:56:19.526Z,1005.03
2016-07-13T08:57:19.520Z,1005.04
2016-07-13T08:58:19.515Z,1004.99
2016-07-13T08:59:19.511Z,1005.03
2016-07-13T09:00:19.507Z,1005.06
2016-07-13T09:01:19.503Z,1005.06
2016-07-13T09:02:19.497Z,1005.06
2016-07-13T09:03:19.494Z,1005.11
2016-07-13T09:04:19.487Z,1005.15
2016-07-13T09:05:19.482Z,1005.13
2016-07-13T09:06:19.477Z,1005.15
2016-07-13T09:07:19.472Z,1005.09
2016-07-13T09:08:19.464Z,1005.04
2016-07-13T09:09:19.459Z,1005.09
2016-07-13T09:10:19.456Z,1005.07
2016-07-13T09:11:19.449Z,1005.07
2016-07-13T09:12:19.450Z,1005.05
2016-07-13T09:13:19.439Z,1005.14
2016-07-13T09:14:19.433Z,1005.19
2016-07-13T09:15:19.427Z,1005.14
2016-07-13T09:16:19.419Z,1005.2
2016-07-13T09:17:19.413Z,1005.11
2016-07-13T09:18:19.408Z,1005.13
2016-07-13T09:19:19.402Z,1005.14
2016-07-13T09:20:19.395Z,1005.16
2016-07-13T09:21:19.391Z,1005.17
2016-07-13T09:22:19.382Z,1005.15
2016-07-13T09:23:19.377Z,1005.19
2016-07-13T09:24:19.373Z,1005.21
2016-07-13T09:25:19.366Z,1005.22
2016-07-13T09:26:19.357Z,1005.17
2016-07-13T09:27:19.353Z,1005.27
2016-07-13T09:28:19.346Z,1005.25
2016-07-13T09:29:19.340Z,1005.27
2016-07-13T09:30:19.335Z,1005.42
2016-07-13T09:31:19.327Z,1005.47
2016-07-13T09:32:19.324Z,1005.38
2016-07-13T09:33:19.316Z,1005.43
2016-07-13T09:34:19.312Z,1005.36
2016-07-13T09:35:19.306Z,1005.35
2016-07-13T09:36:19.301Z,1005.13
2016-07-13T09:37:19.294Z,1005.17
2016-07-13T09:38:19.290Z,1005.1
2016-07-13T09:39:19.284Z,1005.14
2016-07-13T09:40:19.280Z,1005.15
2016-07-13T09:41:19.273Z,1005.16
2016-07-13T09:42:19.270Z,1005.22
2016-07-13T09:43:19.263Z,1005.11
2016-07-13T09:44:19.258Z,1005.13
2016-07-13T09:45:19.251Z,1005.1
2016-07-13T09:46:19.248Z,1005.06
2016-07-13T09:47:19.241Z,1005.08
2016-07-13T09:48:19.234Z,1005.08
2016-07-13T09:49:19.228Z,1005.21
2016-07-13T09:50:19.222Z,1005.2
2016-07-13T09:51:19.218Z,1005.11
2016-07-13T09:52:19.208Z,1005.19
2016-07-13T09:53:19.203Z,1005.17
2016-07-13T09:54:19.199Z,1005.22
2016-07-13T09:55:19.190Z,1005.08
2016-07-13T09:56:19.189Z,1005.19
2016-07-13T09:57:19.179Z,1005.21
2016-07-13T09:58:19.178Z,1005.37
2016-07-13T09:59:19.170Z,1005.46
2016-07-13T10:00:19.165Z,1005.42
2016-07-13T10:01:19.160Z,1005.27
2016-07-13T10:02:19.156Z,1005.42
2016-07-13T10:03:19.152Z,1005.32
2016-07-13T10:04:19.149Z,1005.22
2016-07-13T10:05:19.145Z,1005.19
2016-07-13T10:06:19.141Z,1005.19
2016-07-13T10:07:19.140Z,1005.25
2016-07-13T10:08:19.136Z,1004.95
2016-07-13T10:09:19.131Z,1004.9
2016-07-13T10:10:19.128Z,1004.91
2016-07-13T10:11:19.125Z,1004.99
2016-07-13T10:12:19.173Z,1004.91
2016-07-13T10:13:19.121Z,1005.01
2016-07-13T10:14:19.117Z,1005
2016-07-13T10:15:19.115Z,1005.06
2016-07-13T10:16:19.115Z,1005.04
2016-07-13T10:17:19.112Z,1005.04
2016-07-13T10:18:19.110Z,1005.07
2016-07-13T10:19:19.108Z,1005.14
2016-07-13T10:20:19.108Z,1005.13
2016-07-13T10:21:19.108Z,1005.18
2016-07-13T10:22:19.104Z,1005.23
2016-07-13T10:23:19.101Z,1005.22
2016-07-13T10:24:19.102Z,1005.18
2016-07-13T10:25:19.099Z,1005.2
2016-07-13T10:26:19.097Z,1005.25
2016-07-13T10:27:19.300Z,1005.27
2016-07-13T10:28:19.095Z,1005.26
2016-07-13T10:29:19.093Z,1005.27
2016-07-13T10:30:19.094Z,1005.16
2016-07-13T10:31:19.094Z,1005.25
2016-07-13T10:32:19.090Z,1005.21
2016-07-13T10:33:19.088Z,1005.18
2016-07-13T10:34:19.088Z,1005.22
2016-07-13T10:35:19.085Z,1005.34
2016-07-13T10:36:19.084Z,1005.18
2016-07-13T10:37:19.083Z,1005.39
2016-07-13T10:38:19.079Z,1005.26
2016-07-13T10:39:19.077Z,1005.28
2016-07-13T10:40:19.075Z,1005.33
2016-07-13T10:41:19.072Z,1005.28
2016-07-13T10:42:19.070Z,1005.28
2016-07-13T10:43:19.068Z,1005.23
2016-07-13T10:44:19.068Z,1005.22
2016-07-13T10:45:19.062Z,1005.24
2016-07-13T10:46:19.073Z,1005.26
2016-07-13T10:47:19.057Z,1005.36
2016-07-13T10:48:19.057Z,1005.29
2016-07-13T10:49:19.053Z,1005.36
2016-07-13T10:50:19.048Z,1005.3
2016-07-13T10:51:19.045Z,1005.23
2016-07-13T10:52:19.047Z,1005.25
2016-07-13T10:53:19.037Z,1005.22
2016-07-13T10:54:19.034Z,1005.22
2016-07-13T10:55:19.027Z,1005.19
2016-07-13T10:56:19.025Z,1005.16
2016-07-13T10:57:19.021Z,1005.18
2016-07-13T10:58:19.015Z,1005.21
2016-07-13T10:59:19.011Z,1005.11
2016-07-13T11:00:19.006Z,1005.11
2016-07-13T11:01:19.001Z,1005.14
2016-07-13T11:02:18.996Z,1005.11
2016-07-13T11:03:18.992Z,1005.15
2016-07-13T11:04:18.986Z,1005.17
2016-07-13T11:05:18.980Z,1005.18
2016-07-13T11:06:18.976Z,1005.16
2016-07-13T11:07:18.971Z,1005.21
2016-07-13T11:08:18.966Z,1005.16
2016-07-13T11:09:18.961Z,1005.19
2016-07-13T11:10:18.955Z,1005.21
2016-07-13T11:11:18.951Z,1005.21
2016-07-13T11:12:18.946Z,1005.24
2016-07-13T11:13:18.944Z,1005.15
2016-07-13T11:14:18.939Z,1005.13
2016-07-13T11:15:18.935Z,1005.09
2016-07-13T11:16:18.931Z,1005.07
2016-07-13T11:17:18.928Z,1005.06
2016-07-13T11:18:19.026Z,1005.1
2016-07-13T11:19:18.922Z,1005.1
2016-07-13T11:20:18.922Z,1005.09
2016-07-13T11:21:18.919Z,1005.15
2016-07-13T11:22:18.917Z,1005.08
2016-07-13T11:23:18.913Z,1005.04
2016-07-13T11:24:18.912Z,1005.02
2016-07-13T11:25:18.914Z,1005.05
2016-07-13T11:26:18.911Z,1005.1
2016-07-13T11:27:18.909Z,1005.16
2016-07-13T11:28:18.906Z,1005.12
2016-07-13T11:29:18.905Z,1005.15
2016-07-13T11:30:18.905Z,1005.09
2016-07-13T11:31:18.900Z,1005.1
2016-07-13T11:32:18.897Z,1005.08
2016-07-13T11:33:18.895Z,1005.13
2016-07-13T11:34:18.893Z,1005.1
2016-07-13T11:35:18.890Z,1005.12
2016-07-13T11:36:18.887Z,1005.14
2016-07-13T11:37:18.885Z,1005.07
2016-07-13T11:38:18.885Z,1005.09
2016-07-13T11:39:18.879Z,1005.06
2016-07-13T11:40:18.874Z,1005.11
2016-07-13T11:41:18.870Z,1005.06
2016-07-13T11:42:18.866Z,1005.1
2016-07-13T11:43:18.864Z,1005.16
2016-07-13T11:44:18.860Z,1005.1
2016-07-13T11:45:18.857Z,1005.08
2016-07-13T11:46:18.851Z,1005.16
2016-07-13T11:47:18.846Z,1005.1
2016-07-13T11:48:18.843Z,1005.1
2016-07-13T11:49:18.839Z,1005.09
2016-07-13T11:50:18.834Z,1005.07
2016-07-13T11:51:18.829Z,1005.01
2016-07-13T11:52:18.826Z,1005.05
2016-07-13T11:53:18.820Z,1005.1
2016-07-13T11:54:18.817Z,1005.09
2016-07-13T11:55:18.814Z,1005.08
2016-07-13T11:56:18.809Z,1005.08
2016-07-13T11:57:18.799Z,1005.1
2016-07-13T11:58:18.795Z,1005.09
2016-07-13T11:59:18.791Z,1005.06
2016-07-13T12:00:18.784Z,1005.11
2016-07-13T12:01:18.804Z,1005.08
2016-07-13T12:02:18.774Z,1005.05
2016-07-13T12:03:18.794Z,1005.02
2016-07-13T12:04:18.766Z,1005.01
2016-07-13T12:05:18.761Z,1005.03
2016-07-13T12:06:18.750Z,1005.02
2016-07-13T12:07:18.751Z,1004.99
2016-07-13T12:08:18.739Z,1005.05